Observation data for Lamesa on 06/20/2019      Previous  Date  Next       Current Mesonet Observations  Soil Data  Daily Summary Page  Observations in Plain Language
KLES 200500Z 12005KT 24/15 A2984 RMK A01 T02370146  RH  059%=      5-min Rain = 0
KLES 200505Z 11005KT 24/15 A2984 RMK A01 T02350147  RH  060%=      5-min Rain = 0
KLES 200510Z 10005KT 24/15 A2984 RMK A01 T02360149  RH  061%=      5-min Rain = 0
KLES 200515Z 10005KT 24/15 A2984 RMK A01 T02380150  RH  061%=      5-min Rain = 0
KLES 200520Z 10005KT 24/15 A2984 RMK A01 T02380151  RH  061%=      5-min Rain = 0
KLES 200525Z 10006KT 23/15 A2984 RMK A01 T02330149  RH  062%=      5-min Rain = 0
KLES 200530Z 09006KT 23/15 A2984 RMK A01 T02290149  RH  063%=      5-min Rain = 0
KLES 200535Z 10006KT 23/15 A2984 RMK A01 T02290151  RH  064%=      5-min Rain = 0
KLES 200540Z 10006KT 23/16 A2985 RMK A01 T02310155  RH  065%=      5-min Rain = 0
KLES 200545Z 11007KT 24/15 A2985 RMK A01 T02370153  RH  062%=      5-min Rain = 0
KLES 200550Z 11008KT 24/15 A2985 RMK A01 T02420149  RH  059%=      5-min Rain = 0
KLES 200555Z 11007KT 24/15 A2985 RMK A01 T02430149  RH  058%=      5-min Rain = 0
KLES 200600Z 11009KT 24/15 A2985 RMK A01 T02400149  RH  059%=      5-min Rain = 0
KLES 200605Z 11010KT 24/15 A2985 RMK A01 T02390148  RH  059%=      5-min Rain = 0
KLES 200610Z 11007KT 24/15 A2985 RMK A01 T02400146  RH  058%=      5-min Rain = 0
KLES 200615Z 09004KT 24/15 A2985 RMK A01 T02390146  RH  058%=      5-min Rain = 0
KLES 200620Z 03002KT 24/15 A2985 RMK A01 T02380146  RH  059%=      5-min Rain = 0
KLES 200625Z 31002KT 24/15 A2985 RMK A01 T02370148  RH  060%=      5-min Rain = 0
KLES 200630Z 33003KT 23/15 A2985 RMK A01 T02340147  RH  061%=      5-min Rain = 0
KLES 200635Z 04003KT 23/15 A2985 RMK A01 T02330147  RH  061%=      5-min Rain = 0
KLES 200640Z 07005KT 23/15 A2985 RMK A01 T02340146  RH  060%=      5-min Rain = 0
KLES 200645Z 08006KT 23/14 A2985 RMK A01 T02340144  RH  060%=      5-min Rain = 0
KLES 200650Z 10005KT 23/14 A2985 RMK A01 T02330143  RH  059%=      5-min Rain = 0
KLES 200655Z 10006KT 23/14 A2984 RMK A01 T02290143  RH  061%=      5-min Rain = 0
KLES 200700Z 10004KT 23/14 A2984 RMK A01 T02250142  RH  062%=      5-min Rain = 0
KLES 200705Z 09003KT 22/14 A2984 RMK A01 T02230142  RH  063%=      5-min Rain = 0
KLES 200710Z 08004KT 23/14 A2984 RMK A01 T02250143  RH  062%=      5-min Rain = 0
KLES 200715Z 10004KT 23/15 A2984 RMK A01 T02270145  RH  062%=      5-min Rain = 0
KLES 200720Z 10004KT 22/15 A2984 RMK A01 T02240145  RH  064%=      5-min Rain = 0
KLES 200725Z 10005KT 22/15 A2983 RMK A01 T02210146  RH  065%=      5-min Rain = 0
KLES 200730Z 11005KT 22/15 A2983 RMK A01 T02190146  RH  066%=      5-min Rain = 0
KLES 200735Z 11005KT 22/15 A2983 RMK A01 T02180146  RH  067%=      5-min Rain = 0
KLES 200740Z 09003KT 21/15 A2983 RMK A01 T02140146  RH  068%=      5-min Rain = 0
KLES 200745Z 08004KT 21/15 A2983 RMK A01 T02130146  RH  069%=      5-min Rain = 0
KLES 200750Z 11003KT 21/15 A2983 RMK A01 T02110145  RH  069%=      5-min Rain = 0
KLES 200755Z 12004KT 21/15 A2983 RMK A01 T02110145  RH  069%=      5-min Rain = 0
KLES 200800Z 08003KT 21/15 A2983 RMK A01 T02090145  RH  070%=      5-min Rain = 0
KLES 200805Z 06003KT 21/15 A2983 RMK A01 T02070145  RH  071%=      5-min Rain = 0
KLES 200810Z 10004KT 20/14 A2983 RMK A01 T02040144  RH  071%=      5-min Rain = 0
KLES 200815Z 09004KT 20/14 A2983 RMK A01 T02010143  RH  072%=      5-min Rain = 0
KLES 200820Z 09004KT 20/14 A2983 RMK A01 T01990143  RH  073%=      5-min Rain = 0
KLES 200825Z 09004KT 20/14 A2983 RMK A01 T01980142  RH  073%=      5-min Rain = 0
KLES 200830Z 09004KT 20/14 A2982 RMK A01 T01980143  RH  074%=      5-min Rain = 0
KLES 200835Z 10003KT 20/14 A2982 RMK A01 T01970142  RH  074%=      5-min Rain = 0
KLES 200840Z 10003KT 20/14 A2982 RMK A01 T01960142  RH  074%=      5-min Rain = 0
KLES 200845Z 09004KT 19/14 A2982 RMK A01 T01940142  RH  075%=      5-min Rain = 0
KLES 200850Z 10004KT 19/14 A2982 RMK A01 T01920142  RH  076%=      5-min Rain = 0
KLES 200855Z 10004KT 19/14 A2982 RMK A01 T01920143  RH  076%=      5-min Rain = 0
KLES 200900Z 10004KT 19/14 A2982 RMK A01 T01920142  RH  076%=      5-min Rain = 0
KLES 200905Z 10003KT 19/14 A2982 RMK A01 T01910142  RH  077%=      5-min Rain = 0
KLES 200910Z 11004KT 19/14 A2982 RMK A01 T01900142  RH  077%=      5-min Rain = 0
KLES 200915Z 11004KT 19/14 A2982 RMK A01 T01900144  RH  078%=      5-min Rain = 0
KLES 200920Z 10003KT 19/14 A2982 RMK A01 T01890143  RH  078%=      5-min Rain = 0
KLES 200925Z 09002KT 19/14 A2981 RMK A01 T01870143  RH  079%=      5-min Rain = 0
KLES 200930Z 10002KT 19/14 A2981 RMK A01 T01850141  RH  079%=      5-min Rain = 0
KLES 200935Z 10002KT 18/14 A2981 RMK A01 T01810139  RH  080%=      5-min Rain = 0
KLES 200940Z 12002KT 18/14 A2981 RMK A01 T01790139  RH  081%=      5-min Rain = 0
KLES 200945Z 12003KT 18/14 A2981 RMK A01 T01760137  RH  081%=      5-min Rain = 0
KLES 200950Z 12003KT 17/14 A2982 RMK A01 T01730136  RH  082%=      5-min Rain = 0
KLES 200955Z 11002KT 17/13 A2982 RMK A01 T01700134  RH  083%=      5-min Rain = 0
KLES 201000Z 11002KT 17/14 A2982 RMK A01 T01690135  RH  084%=      5-min Rain = 0
KLES 201005Z 12003KT 17/14 A2982 RMK A01 T01680136  RH  085%=      5-min Rain = 0
KLES 201010Z 14003KT 17/14 A2982 RMK A01 T01690139  RH  086%=      5-min Rain = 0
KLES 201015Z 15004KT 17/14 A2982 RMK A01 T01700140  RH  086%=      5-min Rain = 0
KLES 201020Z 16004KT 17/14 A2982 RMK A01 T01700139  RH  086%=      5-min Rain = 0
KLES 201025Z 16003KT 17/14 A2982 RMK A01 T01700139  RH  086%=      5-min Rain = 0
KLES 201030Z 15002KT 17/14 A2982 RMK A01 T01680137  RH  086%=      5-min Rain = 0
KLES 201035Z 15001KT 17/14 A2982 RMK A01 T01660136  RH  086%=      5-min Rain = 0
KLES 201040Z 18002KT 17/14 A2982 RMK A01 T01650137  RH  087%=      5-min Rain = 0
KLES 201045Z 19002KT 17/14 A2982 RMK A01 T01660139  RH  087%=      5-min Rain = 0
KLES 201050Z 19003KT 17/14 A2982 RMK A01 T01670139  RH  087%=      5-min Rain = 0
KLES 201055Z 20004KT 17/14 A2982 RMK A01 T01670140  RH  088%=      5-min Rain = 0
KLES 201100Z 20004KT 17/14 A2982 RMK A01 T01660137  RH  086%=      5-min Rain = 0
KLES 201105Z 21005KT 16/14 A2982 RMK A01 T01630135  RH  087%=      5-min Rain = 0
KLES 201110Z 21006KT 16/14 A2982 RMK A01 T01620135  RH  087%=      5-min Rain = 0
KLES 201115Z 22004KT 16/14 A2982 RMK A01 T01610135  RH  088%=      5-min Rain = 0
KLES 201120Z 21004KT 16/13 A2982 RMK A01 T01600134  RH  088%=      5-min Rain = 0
KLES 201125Z 20004KT 16/13 A2983 RMK A01 T01580132  RH  088%=      5-min Rain = 0
KLES 201130Z 21004KT 15/13 A2983 RMK A01 T01540128  RH  088%=      5-min Rain = 0
KLES 201135Z 22004KT 15/13 A2983 RMK A01 T01530129  RH  089%=      5-min Rain = 0
KLES 201140Z 22005KT 16/13 A2983 RMK A01 T01560134  RH  090%=      5-min Rain = 0
KLES 201145Z 22005KT 16/14 A2983 RMK A01 T01580135  RH  090%=      5-min Rain = 0
KLES 201150Z 23005KT 16/14 A2983 RMK A01 T01590137  RH  090%=      5-min Rain = 0
KLES 201155Z 22005KT 16/14 A2983 RMK A01 T01600137  RH  090%=      5-min Rain = 0
KLES 201200Z 22006KT 16/14 A2984 RMK A01 T01590135  RH  089%=      5-min Rain = 0
KLES 201205Z 22006KT 16/13 A2984 RMK A01 T01570133  RH  089%=      5-min Rain = 0
KLES 201210Z 21006KT 16/13 A2984 RMK A01 T01580134  RH  089%=      5-min Rain = 0
KLES 201215Z 21006KT 16/14 A2984 RMK A01 T01600136  RH  089%=      5-min Rain = 0
KLES 201220Z 20007KT 16/14 A2985 RMK A01 T01640139  RH  089%=      5-min Rain = 0
KLES 201225Z 20007KT 17/14 A2985 RMK A01 T01680139  RH  087%=      5-min Rain = 0
KLES 201230Z 20006KT 17/14 A2985 RMK A01 T01700139  RH  086%=      5-min Rain = 0
KLES 201235Z 19007KT 17/14 A2985 RMK A01 T01720139  RH  084%=      5-min Rain = 0
KLES 201240Z 21008KT 18/14 A2985 RMK A01 T01760136  RH  081%=      5-min Rain = 0
KLES 201245Z 21007KT 18/14 A2985 RMK A01 T01800135  RH  078%=      5-min Rain = 0
KLES 201250Z 21008KT 18/13 A2985 RMK A01 T01840130  RH  074%=      5-min Rain = 0
KLES 201255Z 22008KT 19/12 A2985 RMK A01 T01910123  RH  067%=      5-min Rain = 0
KLES 201300Z 20006KT 20/12 A2986 RMK A01 T01970124  RH  065%=      5-min Rain = 0
KLES 201305Z 20006KT 20/13 A2986 RMK A01 T02000126  RH  065%=      5-min Rain = 0
KLES 201310Z 21006KT 20/12 A2986 RMK A01 T02030121  RH  062%=      5-min Rain = 0
KLES 201315Z 22006KT 21/11 A2986 RMK A01 T02100112  RH  056%=      5-min Rain = 0
KLES 201320Z 22007KT 22/10 A2986 RMK A01 T02190103  RH  049%=      5-min Rain = 0
KLES 201325Z 22007KT 23/10 A2986 RMK A01 T02250099  RH  046%=      5-min Rain = 0
KLES 201330Z 22006KT 23/09 A2986 RMK A01 T02310092  RH  042%=      5-min Rain = 0
KLES 201335Z 22006KT 24/09 A2986 RMK A01 T02370089  RH  040%=      5-min Rain = 0
KLES 201340Z 21007KT 24/08 A2986 RMK A01 T02440082  RH  037%=      5-min Rain = 0
KLES 201350Z 22010KT 25/06 A2986 RMK A01 T02500061  RH  030%=      5-min Rain = 0
KLES 201355Z 21010KT 26/06 A2986 RMK A01 T02550057  RH  029%=      5-min Rain = 0
KLES 201400Z 21009KT 26/06 A2986 RMK A01 T02600056  RH  028%=      5-min Rain = 0
KLES 201405Z 21011KT 27/05 A2986 RMK A01 T02660052  RH  026%=      5-min Rain = 0
KLES 201410Z 22011KT 27/05 A2986 RMK A01 T02710047  RH  024%=      5-min Rain = 0
KLES 201415Z 22012KT 28/04 A2986 RMK A01 T02760042  RH  023%=      5-min Rain = 0
KLES 201420Z 21010KT 28/05 A2986 RMK A01 T02810048  RH  023%=      5-min Rain = 0
KLES 201425Z 21010KT 29/05 A2986 RMK A01 T02850045  RH  022%=      5-min Rain = 0
KLES 201430Z 21011KT 29/04 A2986 RMK A01 T02880043  RH  021%=      5-min Rain = 0
KLES 201435Z 21010KT 29/04 A2986 RMK A01 T02930043  RH  021%=      5-min Rain = 0
KLES 201440Z 21012KT 30/03 A2986 RMK A01 T02980027  RH  018%=      5-min Rain = 0
KLES 201445Z 22010KT 30/03 A2987 RMK A01 T03020034  RH  018%=      5-min Rain = 0
KLES 201450Z 23010KT 31/03 A2987 RMK A01 T03070034  RH  018%=      5-min Rain = 0
KLES 201455Z 23010KT 31/03 A2986 RMK A01 T03100031  RH  017%=      5-min Rain = 0
KLES 201500Z 23011KT 31/03 A2986 RMK A01 T03130026  RH  016%=      5-min Rain = 0
KLES 201505Z 22012KT 32/01 A2986 RMK A01 T03160014  RH  015%=      5-min Rain = 0
KLES 201510Z 22011G16KT 32/01 A2986 RMK A01 T03180012  RH  014%=      5-min Rain = 0
KLES 201515Z 22011KT 33/01 A2986 RMK A01 T03250010  RH  014%=      5-min Rain = 0
KLES 201520Z 22012KT 33/01 A2986 RMK A01 T03280007  RH  013%=      5-min Rain = 0
KLES 201525Z 23012KT 33/01 A2986 RMK A01 T03290007  RH  013%=      5-min Rain = 0
KLES 201530Z 23014KT 33/00 A2986 RMK A01 T03310000  RH  012%=      5-min Rain = 0
KLES 201535Z 23012KT 33/00 A2986 RMK A01 T03330003  RH  012%=      5-min Rain = 0
KLES 201540Z 23012KT 34/00 A2986 RMK A01 T03360003  RH  012%=      5-min Rain = 0
KLES 201545Z 24012KT 34/M00 A2986 RMK A01 T03381001  RH  012%=      5-min Rain = 0
KLES 201550Z 23013G18KT 34/M01 A2986 RMK A01 T03381010  RH  011%=      5-min Rain = 0
KLES 201555Z 22013KT 34/M01 A2986 RMK A01 T03411008  RH  011%=      5-min Rain = 0
KLES 201600Z 23013KT 34/M01 A2986 RMK A01 T03441012  RH  010%=      5-min Rain = 0
KLES 201605Z 24012G17KT 34/M02 A2986 RMK A01 T03441022  RH  010%=      5-min Rain = 0
KLES 201610Z 24013G18KT 35/M02 A2986 RMK A01 T03471017  RH  010%=      5-min Rain = 0
KLES 201615Z 24012G17KT 35/M02 A2986 RMK A01 T03471017  RH  010%=      5-min Rain = 0
KLES 201620Z 24012KT 35/M01 A2986 RMK A01 T03501013  RH  010%=      5-min Rain = 0
KLES 201625Z 24012KT 35/M01 A2986 RMK A01 T03521009  RH  010%=      5-min Rain = 0
KLES 201630Z 24011KT 35/M01 A2986 RMK A01 T03531008  RH  010%=      5-min Rain = 0
KLES 201635Z 23011G16KT 35/M01 A2986 RMK A01 T03541008  RH  010%=      5-min Rain = 0
KLES 201640Z 23013G18KT 36/M01 A2986 RMK A01 T03551014  RH  010%=      5-min Rain = 0
KLES 201645Z 24010KT 36/M01 A2986 RMK A01 T03571011  RH  010%=      5-min Rain = 0
KLES 201650Z 24011G16KT 36/M01 A2986 RMK A01 T03611014  RH  009%=      5-min Rain = 0
KLES 201655Z 23010G16KT 36/M01 A2986 RMK A01 T03611008  RH  010%=      5-min Rain = 0
KLES 201700Z 23011KT 36/M01 A2986 RMK A01 T03631010  RH  009%=      5-min Rain = 0
KLES 201705Z 23012KT 36/M01 A2986 RMK A01 T03631011  RH  009%=      5-min Rain = 0
KLES 201710Z 23010G16KT 37/M01 A2986 RMK A01 T03651010  RH  009%=      5-min Rain = 0
KLES 201715Z 22009G15KT 37/M01 A2986 RMK A01 T03671005  RH  010%=      5-min Rain = 0
KLES 201720Z 22008G13KT 37/M01 A2985 RMK A01 T03701006  RH  009%=      5-min Rain = 0
KLES 201725Z 24009G14KT 37/M00 A2985 RMK A01 T03741004  RH  009%=      5-min Rain = 0
KLES 201730Z 23009KT 38/M00 A2985 RMK A01 T03761002  RH  009%=      5-min Rain = 0
KLES 201735Z 21011G16KT 38/M00 A2985 RMK A01 T03781002  RH  009%=      5-min Rain = 0
KLES 201740Z 21012KT 38/M01 A2985 RMK A01 T03751009  RH  009%=      5-min Rain = 0
KLES 201745Z 23009G15KT 38/M01 A2985 RMK A01 T03761010  RH  009%=      5-min Rain = 0
KLES 201750Z 21009G14KT 38/M01 A2985 RMK A01 T03811011  RH  009%=      5-min Rain = 0
KLES 201755Z 22010KT 38/M01 A2985 RMK A01 T03801009  RH  009%=      5-min Rain = 0
KLES 201800Z 19012KT 38/M01 A2985 RMK A01 T03841012  RH  008%=      5-min Rain = 0
KLES 201805Z 21012G17KT 39/M01 A2985 RMK A01 T03851009  RH  009%=      5-min Rain = 0
KLES 201810Z 21012G21KT 39/M01 A2985 RMK A01 T03871012  RH  008%=      5-min Rain = 0
KLES 201815Z 21012KT 39/M02 A2985 RMK A01 T03851017  RH  008%=      5-min Rain = 0
KLES 201820Z 20012KT 39/M01 A2984 RMK A01 T03871010  RH  008%=      5-min Rain = 0
KLES 201825Z 19011G16KT 39/M01 A2984 RMK A01 T03881012  RH  008%=      5-min Rain = 0
KLES 201830Z 21012KT 39/M02 A2984 RMK A01 T03881017  RH  008%=      5-min Rain = 0
KLES 201835Z 21013G20KT 39/M02 A2984 RMK A01 T03911017  RH  008%=      5-min Rain = 0
KLES 201840Z 22012G18KT 39/M02 A2984 RMK A01 T03901021  RH  008%=      5-min Rain = 0
KLES 201845Z 21011G16KT 39/M02 A2983 RMK A01 T03911016  RH  008%=      5-min Rain = 0
KLES 201850Z 22012G18KT 40/M02 A2983 RMK A01 T03951019  RH  007%=      5-min Rain = 0
KLES 201855Z 23013G19KT 40/M03 A2983 RMK A01 T03971025  RH  007%=      5-min Rain = 0
KLES 201900Z 22011G16KT 40/M02 A2983 RMK A01 T03951020  RH  007%=      5-min Rain = 0
KLES 201905Z 21011KT 40/M01 A2983 RMK A01 T04011013  RH  008%=      5-min Rain = 0
KLES 201910Z 23013G18KT 40/M02 A2983 RMK A01 T04011022  RH  007%=      5-min Rain = 0
KLES 201915Z 23012G18KT 40/M03 A2982 RMK A01 T03961029  RH  007%=      5-min Rain = 0
KLES 201920Z 21012G20KT 40/M02 A2982 RMK A01 T03951023  RH  007%=      5-min Rain = 0
KLES 201925Z 20010G15KT 40/M02 A2982 RMK A01 T03961023  RH  007%=      5-min Rain = 0
KLES 201930Z 23012G19KT 40/M03 A2982 RMK A01 T03971026  RH  007%=      5-min Rain = 0
KLES 201935Z 22009G18KT 40/M02 A2982 RMK A01 T03971019  RH  007%=      5-min Rain = 0
KLES 201940Z 23010G15KT 40/M02 A2982 RMK A01 T03981020  RH  007%=      5-min Rain = 0
KLES 201945Z 25010KT 40/M03 A2982 RMK A01 T03981028  RH  007%=      5-min Rain = 0
KLES 201950Z 22009G16KT 40/M03 A2982 RMK A01 T03981025  RH  007%=      5-min Rain = 0
KLES 201955Z 23005KT 40/M02 A2982 RMK A01 T03981024  RH  007%=      5-min Rain = 0
KLES 202000Z 26014G21KT 40/M03 A2981 RMK A01 T04011026  RH  007%=      5-min Rain = 0
KLES 202005Z 25009G14KT 40/M03 A2981 RMK A01 T03981029  RH  007%=      5-min Rain = 0
KLES 202010Z 28003KT 39/M03 A2981 RMK A01 T03931032  RH  007%=      5-min Rain = 0
KLES 202015Z 21009G14KT 40/M02 A2981 RMK A01 T03961023  RH  007%=      5-min Rain = 0
KLES 202020Z 23008G15KT 40/M02 A2981 RMK A01 T03991024  RH  007%=      5-min Rain = 0
KLES 202025Z 21005KT 40/M03 A2981 RMK A01 T03951026  RH  007%=      5-min Rain = 0
KLES 202030Z 21009G16KT 40/M02 A2981 RMK A01 T04001020  RH  007%=      5-min Rain = 0
KLES 202035Z 20013G23KT 40/M01 A298 RMK A01 T04021014  RH  007%=      5-min Rain = 0
KLES 202040Z 23018G24KT 41/M02 A298 RMK A01 T04051024  RH  007%=      5-min Rain = 0
KLES 202045Z 24010G16KT 40/M03 A298 RMK A01 T04011032  RH  007%=      5-min Rain = 0
KLES 202050Z 24010G17KT 40/M03 A298 RMK A01 T04011032  RH  007%=      5-min Rain = 0
KLES 202055Z 23006KT 40/M03 A298 RMK A01 T03991031  RH  007%=      5-min Rain = 0
KLES 202100Z 26007KT 40/M03 A2979 RMK A01 T03981030  RH  007%=      5-min Rain = 0
KLES 202105Z 20011G16KT 40/M02 A2979 RMK A01 T04001016  RH  007%=      5-min Rain = 0
KLES 202110Z 23009G15KT 40/M02 A2979 RMK A01 T03961019  RH  007%=      5-min Rain = 0
KLES 202115Z 24008KT 39/M03 A2979 RMK A01 T03891029  RH  007%=      5-min Rain = 0
KLES 202120Z 23004KT 39/M03 A2979 RMK A01 T03851028  RH  007%=      5-min Rain = 0
KLES 202125Z 26008KT 39/M03 A2978 RMK A01 T03871029  RH  007%=      5-min Rain = 0
KLES 202130Z 19006KT 39/M03 A2978 RMK A01 T03851030  RH  007%=      5-min Rain = 0
KLES 202135Z 23009G18KT 40/M02 A2978 RMK A01 T03951023  RH  007%=      5-min Rain = 0
KLES 202140Z 23014G19KT 40/M03 A2978 RMK A01 T04001027  RH  007%=      5-min Rain = 0
KLES 202145Z 23013G22KT 40/M03 A2978 RMK A01 T03981031  RH  007%=      5-min Rain = 0
KLES 202150Z 23008KT 40/M03 A2978 RMK A01 T03961030  RH  007%=      5-min Rain = 0
KLES 202155Z 21009G16KT 39/M01 A2978 RMK A01 T03871013  RH  008%=      5-min Rain = 0
KLES 202200Z 21014G21KT 39/M02 A2977 RMK A01 T03901024  RH  007%=      5-min Rain = 0
KLES 202205Z 20011KT 40/M02 A2977 RMK A01 T03991019  RH  007%=      5-min Rain = 0
KLES 202210Z 20008KT 40/M03 A2977 RMK A01 T04001026  RH  007%=      5-min Rain = 0
KLES 202215Z 20009G20KT 40/M03 A2977 RMK A01 T03991027  RH  007%=      5-min Rain = 0
KLES 202220Z 21014G20KT 40/M03 A2977 RMK A01 T03991026  RH  007%=      5-min Rain = 0
KLES 202225Z 26013KT 40/M04 A2977 RMK A01 T04001040  RH  006%=      5-min Rain = 0
KLES 202230Z 26012KT 40/M04 A2977 RMK A01 T04001041  RH  006%=      5-min Rain = 0
KLES 202235Z 26012G17KT 40/M04 A2976 RMK A01 T03991040  RH  006%=      5-min Rain = 0
KLES 202240Z 26009G14KT 40/M04 A2976 RMK A01 T04001039  RH  006%=      5-min Rain = 0
KLES 202245Z 23015G22KT 40/M04 A2976 RMK A01 T04001038  RH  006%=      5-min Rain = 0
KLES 202250Z 22015G20KT 40/M04 A2976 RMK A01 T03991036  RH  006%=      5-min Rain = 0
KLES 202255Z 24015G20KT 40/M04 A2976 RMK A01 T03991044  RH  006%=      5-min Rain = 0
KLES 202300Z 24011KT 40/M04 A2976 RMK A01 T03971041  RH  006%=      5-min Rain = 0
KLES 202305Z 24008KT 40/M04 A2976 RMK A01 T03961043  RH  006%=      5-min Rain = 0
KLES 202310Z 22009KT 40/M04 A2976 RMK A01 T03961035  RH  007%=      5-min Rain = 0
KLES 202315Z 21011G19KT 39/M03 A2976 RMK A01 T03941029  RH  007%=      5-min Rain = 0
KLES 202320Z 21015KT 39/M03 A2976 RMK A01 T03941026  RH  007%=      5-min Rain = 0
KLES 202325Z 21013KT 39/M02 A2976 RMK A01 T03931023  RH  007%=      5-min Rain = 0
KLES 202330Z 22010G15KT 39/M03 A2975 RMK A01 T03921027  RH  007%=      5-min Rain = 0
KLES 202335Z 22014G20KT 39/M02 A2975 RMK A01 T03921024  RH  007%=      5-min Rain = 0
KLES 202340Z 23014G20KT 39/M03 A2975 RMK A01 T03921033  RH  007%=      5-min Rain = 0
KLES 202345Z 24012G17KT 39/M04 A2975 RMK A01 T03931040  RH  006%=      5-min Rain = 0
KLES 202350Z 23013G18KT 39/M04 A2975 RMK A01 T03911035  RH  007%=      5-min Rain = 0
KLES 202355Z 25011G17KT 39/M04 A2975 RMK A01 T03911038  RH  007%=      5-min Rain = 0
KLES 210000Z 25012KT 39/M04 A2975 RMK A01 T03901037  RH  007%=      5-min Rain = 0
KLES 210005Z 26010KT 39/M03 A2975 RMK A01 T03891033  RH  007%=      5-min Rain = 0
KLES 210010Z 24008KT 39/M03 A2975 RMK A01 T03881025  RH  007%=      5-min Rain = 0
KLES 210015Z 24009G14KT 39/M03 A2975 RMK A01 T03871029  RH  007%=      5-min Rain = 0
KLES 210020Z 23010KT 39/M03 A2975 RMK A01 T03851025  RH  008%=      5-min Rain = 0
KLES 210025Z 23012KT 38/M02 A2975 RMK A01 T03821022  RH  008%=      5-min Rain = 0
KLES 210030Z 22011KT 38/M02 A2975 RMK A01 T03811015  RH  008%=      5-min Rain = 0
KLES 210035Z 23011KT 38/M02 A2975 RMK A01 T03811016  RH  008%=      5-min Rain = 0
KLES 210040Z 24011KT 38/M02 A2975 RMK A01 T03821021  RH  008%=      5-min Rain = 0
KLES 210045Z 23011KT 38/M02 A2975 RMK A01 T03821023  RH  008%=      5-min Rain = 0
KLES 210050Z 23012KT 38/M02 A2975 RMK A01 T03791023  RH  008%=      5-min Rain = 0
KLES 210055Z 25014KT 38/M04 A2975 RMK A01 T03781039  RH  007%=      5-min Rain = 0
KLES 210100Z 25012G17KT 38/M04 A2975 RMK A01 T03771040  RH  007%=      5-min Rain = 0
KLES 210105Z 24011G17KT 37/M04 A2975 RMK A01 T03741040  RH  007%=      5-min Rain = 0
KLES 210110Z 24010KT 37/M04 A2975 RMK A01 T03711037  RH  007%=      5-min Rain = 0
KLES 210115Z 24011KT 37/M03 A2975 RMK A01 T03681034  RH  008%=      5-min Rain = 0
KLES 210120Z 24008KT 36/M03 A2975 RMK A01 T03641028  RH  008%=      5-min Rain = 0
KLES 210125Z 24009KT 36/M03 A2975 RMK A01 T03601025  RH  009%=      5-min Rain = 0
KLES 210130Z 24009KT 36/M02 A2975 RMK A01 T03561024  RH  009%=      5-min Rain = 0
KLES 210135Z 24008KT 35/M02 A2975 RMK A01 T03511022  RH  009%=      5-min Rain = 0
KLES 210140Z 24009KT 35/M02 A2976 RMK A01 T03461023  RH  010%=      5-min Rain = 0
KLES 210145Z 24009KT 34/M02 A2976 RMK A01 T03431023  RH  010%=      5-min Rain = 0
KLES 210150Z 24009KT 34/M02 A2976 RMK A01 T03401022  RH  010%=      5-min Rain = 0
KLES 210155Z 24007KT 33/M02 A2976 RMK A01 T03341018  RH  011%=      5-min Rain = 0
KLES 210200Z 24007KT 33/M02 A2976 RMK A01 T03271017  RH  011%=      5-min Rain = 0
KLES 210205Z 24007KT 32/M02 A2976 RMK A01 T03231017  RH  011%=      5-min Rain = 0
KLES 210210Z 24006KT 32/M02 A2976 RMK A01 T03181016  RH  012%=      5-min Rain = 0
KLES 210215Z 24007KT 31/M02 A2976 RMK A01 T03131015  RH  012%=      5-min Rain = 0
KLES 210220Z 24008KT 31/M02 A2976 RMK A01 T03111017  RH  012%=      5-min Rain = 0
KLES 210225Z 24008KT 31/M02 A2976 RMK A01 T03081017  RH  012%=      5-min Rain = 0
KLES 210230Z 25008KT 31/M02 A2977 RMK A01 T03081016  RH  012%=      5-min Rain = 0
KLES 210235Z 24008KT 31/M02 A2977 RMK A01 T03061016  RH  013%=      5-min Rain = 0
KLES 210240Z 25007KT 30/M02 A2977 RMK A01 T03031019  RH  012%=      5-min Rain = 0
KLES 210245Z 25008KT 30/M02 A2977 RMK A01 T03011022  RH  012%=      5-min Rain = 0
KLES 210250Z 24007KT 30/M02 A2977 RMK A01 T02991021  RH  013%=      5-min Rain = 0
KLES 210255Z 24007KT 30/M02 A2977 RMK A01 T02951019  RH  013%=      5-min Rain = 0
KLES 210300Z 24007KT 29/M02 A2977 RMK A01 T02901016  RH  014%=      5-min Rain = 0
KLES 210305Z 24006KT 28/M01 A2978 RMK A01 T02841014  RH  014%=      5-min Rain = 0
KLES 210310Z 24006KT 28/M01 A2978 RMK A01 T02801013  RH  015%=      5-min Rain = 0
KLES 210315Z 23006KT 28/M01 A2978 RMK A01 T02771010  RH  015%=      5-min Rain = 0
KLES 210320Z 23006KT 27/01 A2978 RMK A01 T02690005  RH  018%=      5-min Rain = 0
KLES 210325Z 23007KT 26/01 A2978 RMK A01 T02590010  RH  020%=      5-min Rain = 0
KLES 210330Z 22007KT 26/01 A2978 RMK A01 T02550008  RH  020%=      5-min Rain = 0
KLES 210335Z 22007KT 25/01 A2979 RMK A01 T02520011  RH  021%=      5-min Rain = 0
KLES 210340Z 23007KT 25/01 A2979 RMK A01 T02510008  RH  020%=      5-min Rain = 0
KLES 210345Z 23007KT 25/01 A2979 RMK A01 T02530007  RH  020%=      5-min Rain = 0
KLES 210350Z 22007KT 25/01 A2979 RMK A01 T02530009  RH  021%=      5-min Rain = 0
KLES 210355Z 22007KT 25/01 A2979 RMK A01 T02470009  RH  021%=      5-min Rain = 0
KLES 210400Z 22006KT 25/01 A2979 RMK A01 T02450007  RH  021%=      5-min Rain = 0
KLES 210405Z 22006KT 25/00 A2979 RMK A01 T02470003  RH  020%=      5-min Rain = 0
KLES 210410Z 23006KT 25/M00 A2979 RMK A01 T02501001  RH  019%=      5-min Rain = 0
KLES 210415Z 23006KT 25/M00 A2979 RMK A01 T02501001  RH  019%=      5-min Rain = 0
KLES 210420Z 23007KT 25/M00 A2979 RMK A01 T02491003  RH  019%=      5-min Rain = 0
KLES 210425Z 24007KT 25/M01 A2979 RMK A01 T02491006  RH  019%=      5-min Rain = 0
KLES 210430Z 24007KT 25/M01 A298 RMK A01 T02501006  RH  019%=      5-min Rain = 0
KLES 210435Z 23007KT 25/M01 A298 RMK A01 T02521008  RH  018%=      5-min Rain = 0
KLES 210440Z 21007KT 24/01 A298 RMK A01 T02420007  RH  022%=      5-min Rain = 0
KLES 210445Z 20007KT 22/02 A298 RMK A01 T02220023  RH  027%=      5-min Rain = 0
KLES 210450Z 18009KT 21/03 A2981 RMK A01 T02120025  RH  030%=      5-min Rain = 0
KLES 210455Z 18012KT 23/M01 A2981 RMK A01 T02261007  RH  021%=      5-min Rain = 0

Page generated in 0.0191 seconds.